Time;durP1;ratioP1;P1;durP2;ratioP2;P2;SDS_P1;SDS_P2;PMS_P1;PMS_P2;Temp;Humidity;BMP_temperature;BMP_pressure;BME280_temperature;BME280_humidity;BME280_pressure;Samples;Min_cycle;Max_cycle;Signal;HPM_P1;HPM_P2
2020/12/21 00:01:28;;;;;;;9.85;1.35;;;;;;;;;;6098212;23;20073;-54
2020/12/21 00:03:55;;;;;;;6.30;1.00;;;;;;;;;;6073153;23;20420;-52
2020/12/21 00:06:22;;;;;;;9.38;1.23;;;;;;;;;;6098322;23;20489;-55
2020/12/21 00:08:49;;;;;;;10.70;1.80;;;;;;;;;;6096085;23;20050;-54
2020/12/21 00:11:16;;;;;;;8.90;1.20;;;;;;;;;;6096936;23;20016;-49
2020/12/21 00:13:43;;;;;;;10.05;1.75;;;;;;;;;;6096921;23;20061;-50
2020/12/21 00:16:11;;;;;;;14.57;1.75;;;;;;;;;;6097404;23;19998;-52
2020/12/21 00:18:38;;;;;;;9.48;1.75;;;;;;;;;;6097148;23;20077;-54
2020/12/21 00:21:06;;;;;;;7.43;1.63;;;;;;;;;;6096889;23;20445;-54
2020/12/21 00:23:33;;;;;;;9.30;1.20;;;;;;;;;;6097018;23;20025;-52
2020/12/21 00:26:00;;;;;;;11.00;1.80;;;;;;;;;;6097197;23;20010;-52
2020/12/21 00:28:27;;;;;;;8.50;1.25;;;;;;;;;;6096978;23;20044;-54
2020/12/21 00:30:54;;;;;;;12.75;1.23;;;;;;;;;;6096180;23;20388;-53
2020/12/21 00:33:22;;;;;;;9.55;2.10;;;;;;;;;;6096946;23;20018;-53
2020/12/21 00:35:49;;;;;;;9.50;1.20;;;;;;;;;;6097173;23;20007;-52
2020/12/21 00:38:16;;;;;;;14.00;1.55;;;;;;;;;;6097045;23;20009;-55
2020/12/21 00:40:43;;;;;;;10.88;1.73;;;;;;;;;;6097243;23;20065;-54
2020/12/21 00:43:10;;;;;;;10.80;1.77;;;;;;;;;;6071082;23;20386;-52
2020/12/21 00:45:37;;;;;;;8.20;1.63;;;;;;;;;;6096720;23;20002;-53
2020/12/21 00:48:04;;;;;;;9.95;1.50;;;;;;;;;;6097015;23;20009;-56
2020/12/21 00:50:31;;;;;;;15.65;1.58;;;;;;;;;;6096943;23;20342;-55
2020/12/21 00:52:58;;;;;;;10.60;1.85;;;;;;;;;;6096203;23;20018;-53
2020/12/21 00:55:25;;;;;;;9.98;2.58;;;;;;;;;;6096987;23;20405;-52
2020/12/21 00:57:52;;;;;;;17.75;2.13;;;;;;;;;;6096289;23;20002;-53
2020/12/21 01:00:19;;;;;;;17.98;3.03;;;;;;;;;;6068384;23;20006;-46
2020/12/21 01:02:46;;;;;;;11.45;2.08;;;;;;;;;;6095506;23;20034;-53
2020/12/21 01:05:13;;;;;;;9.90;2.05;;;;;;;;;;6096085;23;20435;-52
2020/12/21 01:07:40;;;;;;;14.15;2.85;;;;;;;;;;6069649;23;20042;-51
2020/12/21 01:10:07;;;;;;;12.57;1.92;;;;;;;;;;6095833;23;20006;-51
2020/12/21 01:12:34;;;;;;;22.85;1.83;;;;;;;;;;6095560;23;20032;-50
2020/12/21 01:15:01;;;;;;;17.00;2.33;;;;;;;;;;6095943;23;20450;-49
2020/12/21 01:17:32;;;;;;;11.50;2.08;;;;;;;;;;6095419;23;20353;-49
2020/12/21 01:19:59;;;;;;;10.27;1.98;;;;;;;;;;6095969;23;19998;-47
2020/12/21 01:22:26;;;;;;;8.90;2.00;;;;;;;;;;6095611;23;20007;-52
2020/12/21 01:24:53;;;;;;;11.80;2.00;;;;;;;;;;6070028;23;20029;-53
2020/12/21 01:27:20;;;;;;;9.70;2.20;;;;;;;;;;6070153;23;20348;-52
2020/12/21 01:29:47;;;;;;;11.20;2.00;;;;;;;;;;6070139;23;20367;-51
2020/12/21 01:32:14;;;;;;;9.77;1.90;;;;;;;;;;6095500;23;20053;-53
2020/12/21 01:34:41;;;;;;;14.23;1.65;;;;;;;;;;6095374;23;20057;-55
2020/12/21 01:37:08;;;;;;;7.32;1.35;;;;;;;;;;6095371;23;20331;-46
2020/12/21 01:39:35;;;;;;;14.13;1.92;;;;;;;;;;6095647;23;20007;-49
2020/12/21 01:42:02;;;;;;;11.15;1.98;;;;;;;;;;6095763;23;20010;-51
2020/12/21 01:44:29;;;;;;;13.27;1.35;;;;;;;;;;6095442;23;19999;-47
2020/12/21 01:46:56;;;;;;;10.15;1.80;;;;;;;;;;6095232;23;20018;-50
2020/12/21 01:49:23;;;;;;;12.32;2.22;;;;;;;;;;6095224;23;20010;-53
2020/12/21 01:51:50;;;;;;;14.07;2.10;;;;;;;;;;6095289;23;20093;-51
2020/12/21 01:54:17;;;;;;;11.85;2.05;;;;;;;;;;6095122;23;20003;-49
2020/12/21 01:56:45;;;;;;;17.48;1.88;;;;;;;;;;6095538;23;20081;-47
2020/12/21 01:59:12;;;;;;;14.63;1.83;;;;;;;;;;6095224;23;20007;-48
2020/12/21 02:01:40;;;;;;;7.20;1.25;;;;;;;;;;6094316;23;20002;-47
2020/12/21 02:04:07;;;;;;;13.95;2.22;;;;;;;;;;6094276;23;20063;-47
2020/12/21 02:06:34;;;;;;;5.72;1.20;;;;;;;;;;6093654;23;20352;-49
2020/12/21 02:09:01;;;;;;;9.88;1.83;;;;;;;;;;6093724;23;20073;-53
2020/12/21 02:11:28;;;;;;;6.82;1.38;;;;;;;;;;6093804;23;20423;-51
2020/12/21 02:13:56;;;;;;;21.52;2.53;;;;;;;;;;6069354;23;20335;-53
2020/12/21 02:16:23;;;;;;;18.50;2.08;;;;;;;;;;6094614;23;20065;-47
2020/12/21 02:18:50;;;;;;;17.50;2.35;;;;;;;;;;6069347;23;20033;-51
2020/12/21 02:21:16;;;;;;;14.57;2.10;;;;;;;;;;6095441;23;20340;-56
2020/12/21 02:23:44;;;;;;;30.65;4.30;;;;;;;;;;6096002;23;20123;-54
2020/12/21 02:26:11;;;;;;;22.58;3.05;;;;;;;;;;6096019;23;20041;-55
2020/12/21 02:28:38;;;;;;;24.88;2.00;;;;;;;;;;6095864;23;20360;-54
2020/12/21 02:31:05;;;;;;;17.80;2.65;;;;;;;;;;6095720;23;20086;-56
2020/12/21 02:33:31;;;;;;;19.38;2.30;;;;;;;;;;6095921;23;20014;-54
2020/12/21 02:35:58;;;;;;;13.07;2.42;;;;;;;;;;6095643;23;20009;-52
2020/12/21 02:38:25;;;;;;;24.45;2.42;;;;;;;;;;6095983;23;20011;-53
2020/12/21 02:40:52;;;;;;;20.30;3.10;;;;;;;;;;6095766;23;20002;-56
2020/12/21 02:43:20;;;;;;;27.38;2.70;;;;;;;;;;6095690;23;20010;-53
2020/12/21 02:45:47;;;;;;;24.13;2.10;;;;;;;;;;6095503;23;20021;-53
2020/12/21 02:48:14;;;;;;;36.88;3.08;;;;;;;;;;6096256;23;19998;-53
2020/12/21 02:50:41;;;;;;;26.17;2.33;;;;;;;;;;6095980;23;20006;-55
2020/12/21 02:53:08;;;;;;;15.63;1.45;;;;;;;;;;6095909;23;20014;-52
2020/12/21 02:55:36;;;;;;;19.67;2.05;;;;;;;;;;6096050;23;20003;-54
2020/12/21 02:58:03;;;;;;;19.05;1.58;;;;;;;;;;6096251;23;20129;-53
2020/12/21 03:00:30;;;;;;;14.65;1.63;;;;;;;;;;6095787;23;20006;-55
2020/12/21 03:02:57;;;;;;;21.95;1.80;;;;;;;;;;6095965;23;20149;-51
2020/12/21 03:05:24;;;;;;;6.50;1.00;;;;;;;;;;6096102;23;20032;-55
2020/12/21 03:07:51;;;;;;;8.63;0.88;;;;;;;;;;6095953;23;20416;-56
2020/12/21 03:10:18;;;;;;;10.00;0.85;;;;;;;;;;6095559;23;20010;-54
2020/12/21 03:12:45;;;;;;;9.27;1.65;;;;;;;;;;6095970;23;20014;-52
2020/12/21 03:15:12;;;;;;;6.97;0.90;;;;;;;;;;6095490;23;20029;-54
2020/12/21 03:17:39;;;;;;;12.38;1.30;;;;;;;;;;6095838;23;20029;-53
2020/12/21 03:20:06;;;;;;;18.80;1.50;;;;;;;;;;6095961;23;20089;-53
2020/12/21 03:22:33;;;;;;;8.23;1.00;;;;;;;;;;6095549;23;20021;-53
2020/12/21 03:25:00;;;;;;;22.77;1.75;;;;;;;;;;6095669;23;20006;-52
2020/12/21 03:27:28;;;;;;;17.42;2.20;;;;;;;;;;6096035;23;20009;-50
2020/12/21 03:29:55;;;;;;;9.57;1.30;;;;;;;;;;6096372;23;20010;-51
2020/12/21 03:32:22;;;;;;;6.93;0.93;;;;;;;;;;6097560;23;20372;-51
2020/12/21 03:34:49;;;;;;;18.80;1.65;;;;;;;;;;6097964;23;20073;-51
2020/12/21 03:37:16;;;;;;;16.48;1.60;;;;;;;;;;6097896;23;20363;-54
2020/12/21 03:39:43;;;;;;;14.70;1.70;;;;;;;;;;6097782;23;20423;-55
2020/12/21 03:42:10;;;;;;;12.50;0.93;;;;;;;;;;6097894;23;20511;-55
2020/12/21 03:44:37;;;;;;;5.75;0.80;;;;;;;;;;6097466;23;20025;-54
2020/12/21 03:47:04;;;;;;;5.30;1.00;;;;;;;;;;6097632;23;20062;-53
2020/12/21 03:49:31;;;;;;;6.00;1.08;;;;;;;;;;6097819;23;20002;-52
2020/12/21 03:51:58;;;;;;;10.88;1.35;;;;;;;;;;6097613;23;20020;-52
2020/12/21 03:54:25;;;;;;;14.77;1.08;;;;;;;;;;6097802;23;20002;-53
2020/12/21 03:56:52;;;;;;;9.20;1.77;;;;;;;;;;6097857;23;20010;-52
2020/12/21 03:59:19;;;;;;;5.72;1.45;;;;;;;;;;6097452;23;20007;-54
2020/12/21 04:01:46;;;;;;;7.35;0.73;;;;;;;;;;6072021;23;20383;-49
2020/12/21 04:04:13;;;;;;;6.82;1.20;;;;;;;;;;6072709;23;20435;-50
2020/12/21 04:06:40;;;;;;;8.45;1.10;;;;;;;;;;6072180;23;20006;-51
2020/12/21 04:09:07;;;;;;;9.13;1.40;;;;;;;;;;6097402;23;20450;-51
2020/12/21 04:11:34;;;;;;;16.50;1.65;;;;;;;;;;6098532;23;20457;-51
2020/12/21 04:14:01;;;;;;;10.35;0.88;;;;;;;;;;6097981;23;20013;-55
2020/12/21 04:16:28;;;;;;;4.82;1.25;;;;;;;;;;6073081;23;20435;-50
2020/12/21 04:18:55;;;;;;;12.52;1.48;;;;;;;;;;6097898;23;20009;-52
2020/12/21 04:21:22;;;;;;;7.65;1.15;;;;;;;;;;6097345;23;20085;-54
2020/12/21 04:23:49;;;;;;;13.68;1.73;;;;;;;;;;6097245;23;20002;-52
2020/12/21 04:26:16;;;;;;;10.30;1.10;;;;;;;;;;6097207;23;20470;-52
2020/12/21 04:28:43;;;;;;;4.95;0.90;;;;;;;;;;6097296;23;20013;-47
2020/12/21 04:31:10;;;;;;;8.23;1.27;;;;;;;;;;6097169;23;20010;-50
2020/12/21 04:33:37;;;;;;;9.50;1.20;;;;;;;;;;6097444;23;20115;-52
2020/12/21 04:36:13;;;;;;;7.88;0.93;;;;;;;;;;6097080;23;20091;-48
2020/12/21 04:38:41;;;;;;;9.32;1.20;;;;;;;;;;6097462;23;20102;-50
2020/12/21 04:41:08;;;;;;;4.47;0.85;;;;;;;;;;6096591;23;20002;-49
2020/12/21 04:43:36;;;;;;;5.75;0.98;;;;;;;;;;6097380;23;20021;-49
2020/12/21 04:46:07;;;;;;;6.72;1.20;;;;;;;;;;6097249;23;19998;-51
2020/12/21 04:48:41;;;;;;;10.20;1.52;;;;;;;;;;6097187;23;20009;-53
2020/12/21 04:51:09;;;;;;;9.30;1.20;;;;;;;;;;6096715;23;20419;-51
2020/12/21 04:53:38;;;;;;;9.02;1.00;;;;;;;;;;6097068;23;20030;-51
2020/12/21 04:56:05;;;;;;;7.18;1.30;;;;;;;;;;6096666;23;20010;-52
2020/12/21 04:58:32;;;;;;;6.10;1.35;;;;;;;;;;6096941;23;20010;-47
2020/12/21 05:00:59;;;;;;;2.97;0.77;;;;;;;;;;6097138;23;20026;-49
2020/12/21 05:03:26;;;;;;;8.35;2.10;;;;;;;;;;6097168;23;20446;-48
2020/12/21 05:05:53;;;;;;;7.15;0.93;;;;;;;;;;6096631;23;20602;-48
2020/12/21 05:08:25;;;;;;;6.22;0.90;;;;;;;;;;6096868;23;20435;-50
2020/12/21 05:11:04;;;;;;;9.93;0.90;;;;;;;;;;6096724;23;20017;-49
2020/12/21 05:13:32;;;;;;;4.32;1.17;;;;;;;;;;6097210;23;20306;-49
2020/12/21 05:15:59;;;;;;;6.95;0.93;;;;;;;;;;6096779;23;20376;-47
2020/12/21 05:18:28;;;;;;;7.22;1.20;;;;;;;;;;6097053;23;20106;-47
2020/12/21 05:21:00;;;;;;;3.95;0.73;;;;;;;;;;6096734;23;20006;-47
2020/12/21 05:23:28;;;;;;;4.88;1.13;;;;;;;;;;6096654;23;20006;-49
2020/12/21 05:26:02;;;;;;;12.23;0.90;;;;;;;;;;6096706;23;20038;-47
2020/12/21 05:28:33;;;;;;;3.33;1.00;;;;;;;;;;6096999;23;20077;-47
2020/12/21 05:31:02;;;;;;;5.45;1.20;;;;;;;;;;6096510;23;20010;-47
2020/12/21 05:33:29;;;;;;;5.50;0.82;;;;;;;;;;6096674;23;20490;-47
2020/12/21 05:35:57;;;;;;;3.40;0.88;;;;;;;;;;6096467;23;20014;-47
2020/12/21 05:38:28;;;;;;;5.25;1.05;;;;;;;;;;6096493;23;20297;-51
2020/12/21 05:41:07;;;;;;;5.10;0.80;;;;;;;;;;6096726;23;20482;-51
2020/12/21 05:43:36;;;;;;;5.15;1.00;;;;;;;;;;6096642;23;20026;-55
2020/12/21 05:46:11;;;;;;;5.68;1.45;;;;;;;;;;6096551;23;20013;-53
2020/12/21 05:48:42;;;;;;;5.32;1.30;;;;;;;;;;6096684;23;20010;-50
2020/12/21 05:51:10;;;;;;;4.10;0.70;;;;;;;;;;6096177;23;20007;-51
2020/12/21 05:53:38;;;;;;;9.43;0.90;;;;;;;;;;6096313;23;20010;-53
2020/12/21 05:56:05;;;;;;;6.50;0.85;;;;;;;;;;6096588;23;20423;-52
2020/12/21 05:58:33;;;;;;;2.60;0.80;;;;;;;;;;6096543;23;20016;-55
2020/12/21 06:01:07;;;;;;;4.18;0.80;;;;;;;;;;6096070;23;20003;-54
2020/12/21 06:04:12;;;;;;;3.72;0.82;;;;;;;;;;6096430;23;20003;-49
2020/12/21 06:06:44;;;;;;;4.10;0.90;;;;;;;;;;6036076;23;20007;-54
2020/12/21 06:09:11;;;;;;;2.88;0.70;;;;;;;;;;6036104;23;20055;-50
2020/12/21 06:11:39;;;;;;;4.53;0.90;;;;;;;;;;6042957;23;20018;-52
2020/12/21 06:14:16;;;;;;;5.72;0.70;;;;;;;;;;6096024;23;20006;-50
2020/12/21 06:16:44;;;;;;;3.75;0.50;;;;;;;;;;6096194;23;20003;-54
2020/12/21 06:19:12;;;;;;;5.03;1.25;;;;;;;;;;6096011;23;20007;-53
2020/12/21 06:21:38;;;;;;;4.28;0.70;;;;;;;;;;6096216;23;20011;-54
2020/12/21 06:24:16;;;;;;;2.22;0.80;;;;;;;;;;6095999;23;20369;-51
2020/12/21 06:26:43;;;;;;;1.83;0.60;;;;;;;;;;6095832;23;20015;-49
2020/12/21 06:29:11;;;;;;;1.27;0.40;;;;;;;;;;6096047;23;20065;-50
2020/12/21 06:31:49;;;;;;;8.38;1.50;;;;;;;;;;6096202;23;20141;-56
2020/12/21 06:34:20;;;;;;;1.58;0.45;;;;;;;;;;6096119;23;20006;-47
2020/12/21 06:36:47;;;;;;;2.53;0.73;;;;;;;;;;6096073;23;19999;-54
2020/12/21 06:39:24;;;;;;;4.15;0.98;;;;;;;;;;6070600;23;20010;-54
2020/12/21 06:42:11;;;;;;;3.95;0.75;;;;;;;;;;6096225;23;20085;-53
2020/12/21 06:44:42;;;;;;;4.25;0.63;;;;;;;;;;6096019;23;20380;-52
2020/12/21 06:47:13;;;;;;;4.65;1.02;;;;;;;;;;6095964;23;20025;-54
2020/12/21 06:49:40;;;;;;;5.50;0.73;;;;;;;;;;6096271;23;20007;-52
2020/12/21 06:52:08;;;;;;;6.18;0.88;;;;;;;;;;6095871;23;20021;-52
2020/12/21 06:54:36;;;;;;;4.47;0.60;;;;;;;;;;6096163;23;19998;-50
2020/12/21 06:57:03;;;;;;;3.42;0.50;;;;;;;;;;6095694;23;20014;-50
2020/12/21 06:59:30;;;;;;;5.55;0.82;;;;;;;;;;6095871;23;20068;-55
2020/12/21 07:01:57;;;;;;;5.05;0.68;;;;;;;;;;6095963;23;20038;-50
2020/12/21 07:04:25;;;;;;;3.85;0.73;;;;;;;;;;6095781;23;20022;-55
2020/12/21 07:06:53;;;;;;;3.17;0.60;;;;;;;;;;6095927;23;20006;-55
2020/12/21 07:09:24;;;;;;;4.78;0.93;;;;;;;;;;6096167;23;20008;-54
2020/12/21 07:11:58;;;;;;;3.70;0.43;;;;;;;;;;6095928;23;20372;-55
2020/12/21 07:14:26;;;;;;;3.60;1.00;;;;;;;;;;6070619;23;20009;-56
2020/12/21 07:17:22;;;;;;;3.00;0.68;;;;;;;;;;6095995;23;20037;-53
2020/12/21 07:19:49;;;;;;;3.95;0.75;;;;;;;;;;6083146;23;20532;-51
2020/12/21 07:22:16;;;;;;;3.83;0.85;;;;;;;;;;6095954;23;20002;-55
2020/12/21 07:24:43;;;;;;;4.72;0.90;;;;;;;;;;6095537;23;20403;-55
2020/12/21 07:27:11;;;;;;;1.48;0.50;;;;;;;;;;6095714;23;20010;-54
2020/12/21 07:29:38;;;;;;;3.25;0.88;;;;;;;;;;6095996;23;20002;-56
2020/12/21 07:32:09;;;;;;;2.78;0.50;;;;;;;;;;6095471;23;20022;-53
2020/12/21 07:34:37;;;;;;;7.78;1.02;;;;;;;;;;6095831;23;20026;-51
2020/12/21 07:37:11;;;;;;;4.00;0.93;;;;;;;;;;6095721;23;20007;-51
2020/12/21 07:39:38;;;;;;;1.65;0.70;;;;;;;;;;6095803;23;19999;-47
2020/12/21 07:42:09;;;;;;;4.82;0.88;;;;;;;;;;6095830;23;20014;-48
2020/12/21 07:44:37;;;;;;;3.60;0.63;;;;;;;;;;6095789;23;20011;-47
2020/12/21 07:47:06;;;;;;;3.53;0.65;;;;;;;;;;6095910;23;20007;-47
2020/12/21 07:49:37;;;;;;;0.93;0.40;;;;;;;;;;6095566;23;20424;-47
2020/12/21 07:52:05;;;;;;;1.20;0.30;;;;;;;;;;6095632;23;20018;-46
2020/12/21 07:54:42;;;;;;;1.10;0.38;;;;;;;;;;6095587;23;20050;-47
2020/12/21 07:57:11;;;;;;;1.95;0.55;;;;;;;;;;6095713;23;20061;-46
2020/12/21 07:59:38;;;;;;;1.63;0.50;;;;;;;;;;6095692;23;20432;-46
2020/12/21 08:02:06;;;;;;;6.85;1.02;;;;;;;;;;6069957;23;20013;-50
2020/12/21 08:04:33;;;;;;;4.70;0.60;;;;;;;;;;6095877;23;20438;-45
2020/12/21 08:07:06;;;;;;;4.90;0.77;;;;;;;;;;6095551;23;20006;-46
2020/12/21 08:09:37;;;;;;;5.18;0.50;;;;;;;;;;6095691;23;20142;-46
2020/12/21 08:12:14;;;;;;;2.92;0.63;;;;;;;;;;6095830;23;20022;-47
2020/12/21 08:14:42;;;;;;;2.13;0.47;;;;;;;;;;6095671;23;20090;-46
2020/12/21 08:17:10;;;;;;;1.70;0.43;;;;;;;;;;6097384;23;20006;-47
2020/12/21 08:19:51;;;;;;;2.97;0.70;;;;;;;;;;6097252;23;19999;-46
2020/12/21 08:22:25;;;;;;;7.00;0.80;;;;;;;;;;6097074;23;20041;-47
2020/12/21 08:25:11;;;;;;;4.57;0.50;;;;;;;;;;6096930;23;20407;-46
2020/12/21 08:27:39;;;;;;;4.68;0.68;;;;;;;;;;6097173;23;20045;-49
2020/12/21 08:30:10;;;;;;;1.52;0.40;;;;;;;;;;6097348;23;20010;-46
2020/12/21 08:32:37;;;;;;;1.20;0.40;;;;;;;;;;6097256;23;20018;-49
2020/12/21 08:35:04;;;;;;;4.60;0.50;;;;;;;;;;6097257;23;20006;-46
2020/12/21 08:37:32;;;;;;;5.97;0.68;;;;;;;;;;6097341;23;20006;-47
2020/12/21 08:40:09;;;;;;;2.25;0.38;;;;;;;;;;6097134;23;20082;-47
2020/12/21 08:42:36;;;;;;;2.42;0.95;;;;;;;;;;6097182;23;20034;-46
2020/12/21 08:45:03;;;;;;;1.55;0.43;;;;;;;;;;6097123;23;20344;-46
2020/12/21 08:47:29;;;;;;;1.80;0.40;;;;;;;;;;6097339;23;20011;-51
2020/12/21 08:49:56;;;;;;;3.22;0.55;;;;;;;;;;6071656;23;20671;-49
2020/12/21 08:52:23;;;;;;;1.95;0.43;;;;;;;;;;6096997;23;20424;-49
2020/12/21 08:54:50;;;;;;;1.92;0.50;;;;;;;;;;6097290;23;19999;-47
2020/12/21 08:57:17;;;;;;;4.00;0.75;;;;;;;;;;6096977;23;20013;-46
2020/12/21 08:59:44;;;;;;;1.63;0.77;;;;;;;;;;6097070;23;20124;-47
2020/12/21 09:02:11;;;;;;;2.45;0.50;;;;;;;;;;6097185;23;20002;-47
2020/12/21 09:04:38;;;;;;;0.82;0.28;;;;;;;;;;6096747;23;20010;-48
2020/12/21 09:07:05;;;;;;;2.10;0.60;;;;;;;;;;6096949;23;20460;-51
2020/12/21 09:09:32;;;;;;;4.25;0.40;;;;;;;;;;6097063;23;20002;-49
2020/12/21 09:11:59;;;;;;;2.53;0.43;;;;;;;;;;6096749;23;20021;-50
2020/12/21 09:14:26;;;;;;;2.45;0.52;;;;;;;;;;6096784;23;20013;-47
2020/12/21 09:16:53;;;;;;;2.00;0.50;;;;;;;;;;6071388;23;20093;-49
2020/12/21 09:19:20;;;;;;;1.80;0.60;;;;;;;;;;6096782;23;19998;-50
2020/12/21 09:21:47;;;;;;;5.10;0.50;;;;;;;;;;6096566;23;20379;-51
2020/12/21 09:24:14;;;;;;;1.17;0.45;;;;;;;;;;6071368;23;20077;-55
2020/12/21 09:26:41;;;;;;;4.45;0.45;;;;;;;;;;6096576;23;20014;-55
2020/12/21 09:29:08;;;;;;;1.05;0.38;;;;;;;;;;6096565;23;20017;-54
2020/12/21 09:31:35;;;;;;;2.58;0.38;;;;;;;;;;6096792;23;20049;-52
2020/12/21 09:34:02;;;;;;;1.10;0.40;;;;;;;;;;6096778;23;20009;-54
2020/12/21 09:36:33;;;;;;;5.20;0.70;;;;;;;;;;6096531;23;20439;-55
2020/12/21 09:39:01;;;;;;;2.08;0.30;;;;;;;;;;6071128;23;20331;-56
2020/12/21 09:41:28;;;;;;;1.38;0.50;;;;;;;;;;6096704;23;20017;-56
2020/12/21 09:43:55;;;;;;;7.13;0.47;;;;;;;;;;6096599;23;20070;-56
2020/12/21 09:46:23;;;;;;;2.78;0.90;;;;;;;;;;6096554;23;20491;-56
2020/12/21 09:48:54;;;;;;;4.25;0.65;;;;;;;;;;6096695;23;20005;-55
2020/12/21 09:51:24;;;;;;;4.32;0.47;;;;;;;;;;6096390;23;20002;-55
2020/12/21 09:53:51;;;;;;;1.42;0.40;;;;;;;;;;6096534;23;20006;-56
2020/12/21 09:56:18;;;;;;;3.63;0.63;;;;;;;;;;6096551;23;20495;-53
2020/12/21 09:58:46;;;;;;;2.67;0.35;;;;;;;;;;6096484;23;20033;-52
2020/12/21 10:01:13;;;;;;;6.45;0.77;;;;;;;;;;6096331;23;20003;-55
2020/12/21 10:03:41;;;;;;;6.00;0.85;;;;;;;;;;6096588;23;20009;-55
2020/12/21 10:06:09;;;;;;;1.63;0.50;;;;;;;;;;6096169;23;20498;-52
2020/12/21 10:08:36;;;;;;;3.10;0.70;;;;;;;;;;6096279;23;20366;-53
2020/12/21 10:11:03;;;;;;;7.13;1.15;;;;;;;;;;6096284;23;20057;-54
2020/12/21 10:13:31;;;;;;;6.03;0.73;;;;;;;;;;6096354;23;20074;-54
2020/12/21 10:15:58;;;;;;;3.17;0.52;;;;;;;;;;6096275;23;20003;-51
2020/12/21 10:18:25;;;;;;;3.47;0.85;;;;;;;;;;6096242;23;20010;-51
2020/12/21 10:20:52;;;;;;;6.32;1.20;;;;;;;;;;6096406;23;19999;-56
2020/12/21 10:23:19;;;;;;;5.60;0.73;;;;;;;;;;6096031;23;20010;-54
2020/12/21 10:25:46;;;;;;;5.85;0.93;;;;;;;;;;6095922;23;20480;-53
2020/12/21 10:28:14;;;;;;;10.43;0.77;;;;;;;;;;6096529;23;20010;-53
2020/12/21 10:30:41;;;;;;;7.68;1.40;;;;;;;;;;6096054;23;20130;-48
2020/12/21 10:33:08;;;;;;;5.97;1.20;;;;;;;;;;6095910;23;20169;-49
2020/12/21 10:35:38;;;;;;;5.55;0.85;;;;;;;;;;6096334;23;20005;-47
2020/12/21 10:38:05;;;;;;;1.83;0.57;;;;;;;;;;6096005;23;20006;-47
2020/12/21 10:40:32;;;;;;;6.80;0.75;;;;;;;;;;6095650;23;20029;-47
2020/12/21 10:42:59;;;;;;;7.18;1.20;;;;;;;;;;6071035;23;20396;-47
2020/12/21 10:45:26;;;;;;;6.40;1.05;;;;;;;;;;6096031;23;20002;-48
2020/12/21 10:47:53;;;;;;;13.23;1.75;;;;;;;;;;6095998;23;20003;-46
2020/12/21 10:50:20;;;;;;;9.43;1.60;;;;;;;;;;6070587;23;20017;-48
2020/12/21 10:52:48;;;;;;;9.75;1.05;;;;;;;;;;6095674;23;20019;-50
2020/12/21 10:55:15;;;;;;;10.48;1.63;;;;;;;;;;6095905;23;20065;-47
2020/12/21 10:57:42;;;;;;;10.25;1.30;;;;;;;;;;6096223;23;20009;-47
2020/12/21 11:00:09;;;;;;;11.10;1.33;;;;;;;;;;6096008;23;20033;-45
2020/12/21 11:02:36;;;;;;;9.18;0.90;;;;;;;;;;6095909;23;20449;-46
2020/12/21 11:05:02;;;;;;;6.15;0.98;;;;;;;;;;6096125;23;20431;-45
2020/12/21 11:07:31;;;;;;;6.20;1.00;;;;;;;;;;6095647;23;20359;-49
2020/12/21 11:09:58;;;;;;;11.70;1.45;;;;;;;;;;6095821;23;20089;-46
2020/12/21 11:12:25;;;;;;;10.90;1.58;;;;;;;;;;6096079;23;20010;-49
2020/12/21 11:14:52;;;;;;;13.98;1.88;;;;;;;;;;6095884;23;20009;-46
2020/12/21 11:17:19;;;;;;;9.23;1.55;;;;;;;;;;6095647;23;20053;-49
2020/12/21 11:19:46;;;;;;;17.83;2.00;;;;;;;;;;6095992;23;20428;-45
2020/12/21 11:22:13;;;;;;;12.77;2.13;;;;;;;;;;6095569;23;20012;-45
2020/12/21 11:24:40;;;;;;;7.07;1.30;;;;;;;;;;6095351;23;20007;-50
2020/12/21 11:27:07;;;;;;;9.95;1.50;;;;;;;;;;6095825;23;20093;-46
2020/12/21 11:29:34;;;;;;;22.38;2.67;;;;;;;;;;6094841;23;20002;-46
2020/12/21 11:32:01;;;;;;;21.58;2.20;;;;;;;;;;6095699;23;20371;-46
2020/12/21 11:34:28;;;;;;;46.78;4.22;;;;;;;;;;6095420;23;20070;-47
2020/12/21 11:36:55;;;;;;;64.57;5.25;;;;;;;;;;6091512;23;20031;-51
2020/12/21 11:39:22;;;;;;;89.68;7.30;;;;;;;;;;6094920;23;20029;-56
2020/12/21 11:41:49;;;;;;;105.22;10.38;;;;;;;;;;6069711;23;20010;-53
2020/12/21 11:44:16;;;;;;;64.82;6.28;;;;;;;;;;6069568;23;20343;-57
2020/12/21 11:46:43;;;;;;;68.95;6.80;;;;;;;;;;6093186;23;20007;-57
2020/12/21 11:49:10;;;;;;;67.70;6.10;;;;;;;;;;6091064;23;20007;-55
2020/12/21 11:51:37;;;;;;;50.72;5.07;;;;;;;;;;6093267;23;20322;-55
2020/12/21 11:54:04;;;;;;;39.75;4.22;;;;;;;;;;6095334;23;20319;-50
2020/12/21 11:56:31;;;;;;;30.42;2.85;;;;;;;;;;6093312;23;20367;-58
2020/12/21 11:58:58;;;;;;;39.35;4.30;;;;;;;;;;6093803;23;20005;-53
2020/12/21 12:01:25;;;;;;;60.15;5.38;;;;;;;;;;6096468;23;20014;-52
2020/12/21 12:03:52;;;;;;;62.20;6.82;;;;;;;;;;6097286;23;20072;-55
2020/12/21 12:06:24;;;;;;;51.33;6.15;;;;;;;;;;6095175;23;20340;-53
2020/12/21 12:08:53;;;;;;;37.63;3.08;;;;;;;;;;6095010;23;20427;-54
2020/12/21 12:11:24;;;;;;;65.35;4.53;;;;;;;;;;6092616;23;20007;-58
2020/12/21 12:13:51;;;;;;;42.67;4.00;;;;;;;;;;6096721;23;20049;-56
2020/12/21 12:16:22;;;;;;;66.28;7.43;;;;;;;;;;6097453;23;20002;-60
2020/12/21 12:18:49;;;;;;;49.35;6.25;;;;;;;;;;6093033;23;20006;-51
2020/12/21 12:21:23;;;;;;;58.50;6.25;;;;;;;;;;6095952;23;20010;-60
2020/12/21 12:23:50;;;;;;;78.35;8.13;;;;;;;;;;6096955;23;20033;-59
2020/12/21 12:26:20;;;;;;;73.15;8.57;;;;;;;;;;6093011;23;20448;-59
2020/12/21 12:28:47;;;;;;;73.38;7.13;;;;;;;;;;6094628;23;20002;-60
2020/12/21 12:31:18;;;;;;;77.45;7.97;;;;;;;;;;6095831;23;20029;-55
2020/12/21 12:33:46;;;;;;;70.88;5.80;;;;;;;;;;6092903;23;20062;-59
2020/12/21 12:36:20;;;;;;;66.82;6.45;;;;;;;;;;6066660;23;20085;-61
2020/12/21 12:38:47;;;;;;;69.15;6.30;;;;;;;;;;6092935;23;20335;-59
2020/12/21 12:41:14;;;;;;;70.53;7.07;;;;;;;;;;6096443;23;20010;-58
2020/12/21 12:43:41;;;;;;;67.28;7.47;;;;;;;;;;6096759;23;20002;-60
2020/12/21 12:46:09;;;;;;;75.30;7.50;;;;;;;;;;6096774;23;20036;-60
2020/12/21 12:48:36;;;;;;;71.68;7.95;;;;;;;;;;6070680;23;20054;-58
2020/12/21 12:51:04;;;;;;;44.33;6.50;;;;;;;;;;6096348;23;20010;-57
2020/12/21 12:53:31;;;;;;;64.57;6.53;;;;;;;;;;6096418;23;20018;-56
2020/12/21 12:55:58;;;;;;;55.80;6.78;;;;;;;;;;6093286;23;20002;-58
2020/12/21 12:58:25;;;;;;;54.53;5.63;;;;;;;;;;6095527;23;20010;-55
2020/12/21 13:00:52;;;;;;;51.28;5.80;;;;;;;;;;6092966;23;20002;-59
2020/12/21 13:03:19;;;;;;;84.47;10.07;;;;;;;;;;6070185;23;20037;-58
2020/12/21 13:05:46;;;;;;;77.82;8.20;;;;;;;;;;6094523;23;20061;-60
2020/12/21 13:08:13;;;;;;;83.18;8.07;;;;;;;;;;6093712;23;20071;-57
2020/12/21 13:10:40;;;;;;;65.63;6.32;;;;;;;;;;6096113;23;20050;-59
2020/12/21 13:13:07;;;;;;;74.72;6.32;;;;;;;;;;6095823;23;20038;-60
2020/12/21 13:15:34;;;;;;;44.35;3.60;;;;;;;;;;6093801;23;20007;-59
2020/12/21 13:18:01;;;;;;;71.15;6.25;;;;;;;;;;6093986;23;20509;-59
2020/12/21 13:20:28;;;;;;;53.90;5.53;;;;;;;;;;6094133;23;20474;-58
2020/12/21 13:22:55;;;;;;;67.60;4.15;;;;;;;;;;6096004;23;20002;-58
2020/12/21 13:25:22;;;;;;;70.25;7.30;;;;;;;;;;6095872;23;20498;-60
2020/12/21 13:27:49;;;;;;;73.57;7.75;;;;;;;;;;6094009;23;20372;-61
2020/12/21 13:30:16;;;;;;;97.53;8.23;;;;;;;;;;6095783;23;20030;-55
2020/12/21 13:32:43;;;;;;;71.25;7.00;;;;;;;;;;6095837;23;20024;-61
2020/12/21 13:35:10;;;;;;;41.63;5.63;;;;;;;;;;6096323;23;20026;-59
2020/12/21 13:37:37;;;;;;;40.03;3.65;;;;;;;;;;6095562;23;20017;-59
2020/12/21 13:40:05;;;;;;;80.47;7.05;;;;;;;;;;6095936;23;20415;-60
2020/12/21 13:42:32;;;;;;;61.47;5.57;;;;;;;;;;6096049;23;20432;-60
2020/12/21 13:44:59;;;;;;;75.85;5.65;;;;;;;;;;6095304;23;20003;-58
2020/12/21 13:47:26;;;;;;;50.42;4.45;;;;;;;;;;6095540;23;20097;-58
2020/12/21 13:49:53;;;;;;;68.85;6.22;;;;;;;;;;6095920;23;19998;-58
2020/12/21 13:52:21;;;;;;;56.78;5.35;;;;;;;;;;6092700;23;20367;-58
2020/12/21 13:54:48;;;;;;;40.95;4.55;;;;;;;;;;6095282;23;20033;-58
2020/12/21 13:57:15;;;;;;;55.42;5.85;;;;;;;;;;6067577;23;20491;-49
2020/12/21 13:59:42;;;;;;;41.17;4.90;;;;;;;;;;6095029;23;19998;-56
2020/12/21 14:02:09;;;;;;;46.38;4.35;;;;;;;;;;6095086;23;20033;-50
2020/12/21 14:04:36;;;;;;;42.15;5.55;;;;;;;;;;6095787;23;20007;-61
2020/12/21 14:07:03;;;;;;;35.92;4.43;;;;;;;;;;6095577;23;20061;-62
2020/12/21 14:09:30;;;;;;;46.22;5.10;;;;;;;;;;6091802;23;20081;-56
2020/12/21 14:11:58;;;;;;;36.42;4.10;;;;;;;;;;6094840;23;20085;-56
2020/12/21 14:14:25;;;;;;;42.88;5.43;;;;;;;;;;6095464;23;20006;-52
2020/12/21 14:16:52;;;;;;;40.58;5.32;;;;;;;;;;6094289;23;20041;-54
2020/12/21 14:19:19;;;;;;;36.38;4.43;;;;;;;;;;6094800;23;20005;-52
2020/12/21 14:21:46;;;;;;;41.03;5.78;;;;;;;;;;6091841;23;20002;-54
2020/12/21 14:24:13;;;;;;;43.42;5.03;;;;;;;;;;6093891;23;20582;-55
2020/12/21 14:26:40;;;;;;;33.35;4.32;;;;;;;;;;6094117;23;20018;-56
2020/12/21 14:29:07;;;;;;;36.15;5.38;;;;;;;;;;6094444;23;20319;-56
2020/12/21 14:31:35;;;;;;;32.28;4.82;;;;;;;;;;6094366;23;20011;-52
2020/12/21 14:34:03;;;;;;;54.72;5.90;;;;;;;;;;6092544;23;20002;-52
2020/12/21 14:36:32;;;;;;;54.13;5.13;;;;;;;;;;6094606;23;20033;-53
2020/12/21 14:38:59;;;;;;;44.78;4.95;;;;;;;;;;6092503;23;20301;-54
2020/12/21 14:41:26;;;;;;;54.00;4.88;;;;;;;;;;6094629;23;20427;-55